Time;durP1;ratioP1;P1;durP2;ratioP2;P2;SDS_P1;SDS_P2;PMS_P1;PMS_P2;Temp;Humidity;BMP_temperature;BMP_pressure;BME280_temperature;BME280_humidity;BME280_pressure;Samples;Min_cycle;Max_cycle;Signal;HPM_P1;HPM_P2
2023/02/08 00:02:15;;;;;;;11.35;8.65;;;-2.00;64.90;;;;;;5089817;28;20027;-61
2023/02/08 00:04:41;;;;;;;13.75;10.00;;;-2.10;64.70;;;;;;5092402;28;20043;-61
2023/02/08 00:07:07;;;;;;;12.32;9.30;;;-2.10;64.90;;;;;;5091886;28;20031;-62
2023/02/08 00:09:32;;;;;;;14.68;9.70;;;-2.10;64.90;;;;;;5089922;28;20142;-64
2023/02/08 00:11:58;;;;;;;13.30;9.32;;;-2.10;64.90;;;;;;5091361;28;20039;-63
2023/02/08 00:14:24;;;;;;;12.00;8.57;;;-2.10;64.90;;;;;;5090932;28;20028;-62
2023/02/08 00:16:49;;;;;;;13.32;9.65;;;-2.20;64.70;;;;;;5088505;28;20416;-61
2023/02/08 00:19:15;;;;;;;15.25;10.18;;;-2.20;64.80;;;;;;5083885;28;20028;-62
2023/02/08 00:21:40;;;;;;;13.30;9.48;;;-2.20;65.00;;;;;;5092811;28;20485;-61
2023/02/08 00:24:06;;;;;;;12.65;9.25;;;-2.20;65.20;;;;;;5089981;28;20035;-60
2023/02/08 00:26:32;;;;;;;14.38;9.98;;;-2.20;65.20;;;;;;5087099;28;20450;-64
2023/02/08 00:28:57;;;;;;;11.73;9.02;;;-2.20;65.10;;;;;;5092933;28;20032;-62
2023/02/08 00:31:23;;;;;;;16.33;10.43;;;-2.10;64.90;;;;;;5088733;28;20090;-61
2023/02/08 00:33:49;;;;;;;15.80;10.38;;;-2.20;64.80;;;;;;5088005;28;20020;-61
2023/02/08 00:36:14;;;;;;;14.48;10.60;;;-2.20;64.80;;;;;;5085826;28;20024;-53
2023/02/08 00:38:40;;;;;;;16.30;10.70;;;-2.30;64.60;;;;;;5089034;28;20161;-55
2023/02/08 00:41:06;;;;;;;14.93;10.07;;;-2.30;64.80;;;;;;5090322;28;20032;-61
2023/02/08 00:43:32;;;;;;;12.90;8.85;;;-2.40;64.90;;;;;;5096788;28;20051;-61
2023/02/08 00:45:59;;;;;;;16.70;10.00;;;-2.40;65.30;;;;;;5088706;28;20051;-49
2023/02/08 00:48:26;;;;;;;14.43;9.52;;;-2.40;65.00;;;;;;5089077;28;20028;-54
2023/02/08 00:51:13;;;;;;;14.45;10.82;;;-2.40;65.00;;;;;;5095050;28;20073;-61
2023/02/08 00:53:41;;;;;;;14.80;10.23;;;-2.40;64.90;;;;;;5095176;28;20058;-60
2023/02/08 00:56:08;;;;;;;17.17;9.98;;;-2.50;65.00;;;;;;5101139;28;20038;-61
2023/02/08 00:58:34;;;;;;;16.10;11.05;;;-2.50;65.00;;;;;;5099971;28;20087;-61
2023/02/08 01:01:00;;;;;;;15.10;9.70;;;-2.50;65.00;;;;;;5093481;28;20079;-60
2023/02/08 01:03:26;;;;;;;12.73;9.15;;;-2.50;64.90;;;;;;5097318;28;20059;-61
2023/02/08 01:05:52;;;;;;;12.90;9.27;;;-2.40;64.90;;;;;;5088035;28;20470;-63
2023/02/08 01:08:21;;;;;;;11.75;8.95;;;-2.40;65.00;;;;;;5085991;28;20032;-63
2023/02/08 01:10:47;;;;;;;15.05;9.70;;;-2.40;64.80;;;;;;5100650;28;20107;-60
2023/02/08 01:13:12;;;;;;;13.70;9.02;;;-2.50;64.70;;;;;;5095339;28;20449;-60
2023/02/08 01:15:38;;;;;;;12.77;9.75;;;-2.50;64.80;;;;;;5089004;28;20024;-62
2023/02/08 01:18:05;;;;;;;13.60;9.40;;;-2.50;64.80;;;;;;5085312;28;20474;-62
2023/02/08 01:20:35;;;;;;;16.20;10.70;;;-2.50;64.90;;;;;;5094508;28;20029;-62
2023/02/08 01:23:00;;;;;;;17.92;11.00;;;-2.60;64.90;;;;;;5104794;28;20028;-62
2023/02/08 01:25:26;;;;;;;16.52;11.30;;;-2.60;65.10;;;;;;5090443;28;20040;-61
2023/02/08 01:27:54;;;;;;;14.18;10.50;;;-2.70;65.10;;;;;;5090860;28;20020;-62
2023/02/08 01:30:20;;;;;;;13.48;10.52;;;-2.60;65.10;;;;;;5087052;28;20123;-61
2023/02/08 01:32:45;;;;;;;15.23;10.80;;;-2.70;64.90;;;;;;5080607;28;20125;-61
2023/02/08 01:35:11;;;;;;;14.80;10.48;;;-2.70;64.80;;;;;;5103892;28;20117;-61
2023/02/08 01:37:36;;;;;;;18.58;11.73;;;-2.70;65.00;;;;;;5093713;28;20024;-62
2023/02/08 01:40:02;;;;;;;17.55;12.05;;;-2.70;65.20;;;;;;5095459;28;20031;-63
2023/02/08 01:42:28;;;;;;;15.30;10.68;;;-2.70;65.30;;;;;;5089894;28;20071;-63
2023/02/08 01:45:19;;;;;;;14.95;10.50;;;-2.70;65.40;;;;;;5090529;28;20035;-62
2023/02/08 01:47:48;;;;;;;12.80;9.77;;;-2.80;65.30;;;;;;5090528;28;20062;-63
2023/02/08 01:50:17;;;;;;;14.02;10.98;;;-2.80;65.40;;;;;;5085516;28;20031;-62
2023/02/08 01:52:44;;;;;;;14.00;10.00;;;-2.80;65.40;;;;;;5088943;28;20063;-61
2023/02/08 01:55:26;;;;;;;16.58;10.68;;;-2.80;65.40;;;;;;5101432;28;20085;-62
2023/02/08 01:57:55;;;;;;;14.63;11.10;;;-2.80;65.30;;;;;;5093764;28;20155;-62
2023/02/08 02:00:22;;;;;;;17.83;11.48;;;-2.80;65.20;;;;;;5093611;28;20294;-61
2023/02/08 02:02:52;;;;;;;15.65;11.15;;;-2.80;65.20;;;;;;5094974;28;20031;-62
2023/02/08 02:05:21;;;;;;;17.05;11.60;;;-2.80;65.10;;;;;;5104251;28;20032;-61
2023/02/08 02:07:47;;;;;;;15.48;11.43;;;-2.80;65.20;;;;;;5091463;28;20036;-62
2023/02/08 02:10:31;;;;;;;18.67;11.45;;;-2.90;65.00;;;;;;5090306;28;20032;-62
2023/02/08 02:13:04;;;;;;;13.98;9.88;;;-2.90;65.00;;;;;;5095901;28;20032;-62
2023/02/08 02:15:30;;;;;;;17.30;11.50;;;-2.90;65.00;;;;;;5098720;28;20027;-62
2023/02/08 02:17:56;;;;;;;18.92;12.23;;;-2.90;65.00;;;;;;5094290;28;20432;-63
2023/02/08 02:20:24;;;;;;;15.07;10.50;;;-2.90;65.30;;;;;;5093244;28;20440;-61
2023/02/08 02:23:12;;;;;;;15.25;12.10;;;-2.90;65.20;;;;;;5091972;28;20131;-62
2023/02/08 02:25:56;;;;;;;16.17;11.02;;;-2.90;65.10;;;;;;5092427;28;20044;-63
2023/02/08 02:28:43;;;;;;;18.15;11.80;;;-2.90;65.10;;;;;;5090358;28;20051;-62
2023/02/08 02:31:11;;;;;;;14.93;10.32;;;-2.90;65.00;;;;;;5090922;28;20086;-64
2023/02/08 02:34:09;;;;;;;21.20;13.00;;;-3.00;65.20;;;;;;5089516;28;20028;-63
2023/02/08 02:37:11;;;;;;;15.35;11.18;;;-3.00;65.30;;;;;;5071899;28;20055;-62
2023/02/08 02:40:01;;;;;;;13.98;9.90;;;-3.00;65.30;;;;;;5095143;28;20084;-63
2023/02/08 02:46:07;;;;;;;15.02;10.40;;;-3.00;65.20;;;;;;5084613;28;20039;-62
2023/02/08 02:48:58;;;;;;;19.23;12.35;;;-3.10;65.20;;;;;;5083218;28;20067;-62
2023/02/08 02:51:37;;;;;;;17.17;11.68;;;-3.20;65.30;;;;;;5086293;28;20439;-63
2023/02/08 02:54:15;;;;;;;20.90;12.30;;;-3.30;65.60;;;;;;5086421;28;20079;-62
2023/02/08 02:56:44;;;;;;;17.23;12.27;;;-3.40;65.90;;;;;;5089469;28;20052;-62
2023/02/08 02:59:13;;;;;;;15.52;10.90;;;-3.50;65.80;;;;;;5090476;28;20024;-62
2023/02/08 03:01:41;;;;;;;15.80;11.23;;;-3.60;66.00;;;;;;5088511;28;20024;-62
2023/02/08 03:04:39;;;;;;;15.85;10.00;;;-3.70;66.00;;;;;;5092083;28;20032;-62
2023/02/08 03:07:19;;;;;;;13.48;10.73;;;-3.80;66.30;;;;;;5093328;28;20526;-63
2023/02/08 03:09:54;;;;;;;14.98;10.73;;;-3.80;66.40;;;;;;5087378;28;20024;-62
2023/02/08 03:12:37;;;;;;;17.23;11.32;;;-3.80;66.70;;;;;;5090192;28;20035;-63
2023/02/08 03:15:33;;;;;;;13.95;11.10;;;-3.80;66.60;;;;;;5088712;28;20088;-63
2023/02/08 03:18:33;;;;;;;14.95;10.63;;;-3.90;66.70;;;;;;5088271;28;20020;-62
2023/02/08 03:21:28;;;;;;;14.65;10.68;;;-3.90;66.80;;;;;;5090415;28;20032;-62
2023/02/08 03:24:36;;;;;;;13.65;9.30;;;-3.90;66.70;;;;;;5082692;28;20127;-62
2023/02/08 03:27:18;;;;;;;13.68;10.00;;;-3.90;66.80;;;;;;5088048;28;20111;-62
2023/02/08 03:29:52;;;;;;;16.98;10.48;;;-4.00;67.00;;;;;;5090007;28;20043;-63
2023/02/08 03:32:32;;;;;;;17.10;11.18;;;-4.10;67.00;;;;;;5094781;28;20055;-62
2023/02/08 03:35:14;;;;;;;14.25;9.98;;;-4.10;67.10;;;;;;5084695;28;20039;-62
2023/02/08 03:38:08;;;;;;;13.50;10.73;;;-4.10;67.10;;;;;;5095150;28;20075;-61
2023/02/08 03:40:47;;;;;;;14.05;10.50;;;-4.20;67.00;;;;;;5083891;28;20039;-60
2023/02/08 03:43:30;;;;;;;15.48;10.32;;;-4.20;67.10;;;;;;5089257;28;20039;-60
2023/02/08 03:46:11;;;;;;;16.17;10.73;;;-4.20;67.20;;;;;;5078076;28;20040;-61
2023/02/08 03:48:41;;;;;;;14.93;10.45;;;-4.30;67.30;;;;;;5086706;28;20453;-60
2023/02/08 03:51:08;;;;;;;13.15;10.52;;;-4.30;67.30;;;;;;5095737;28;20043;-50
2023/02/08 03:53:38;;;;;;;14.40;10.75;;;-4.30;67.40;;;;;;5089804;28;20040;-49
2023/02/08 03:56:10;;;;;;;16.23;11.57;;;-4.30;67.40;;;;;;5095471;28;20028;-52
2023/02/08 03:59:04;;;;;;;19.23;11.43;;;-4.30;67.40;;;;;;5091285;28;20056;-53
2023/02/08 04:01:41;;;;;;;14.40;10.80;;;-4.30;67.60;;;;;;5086550;28;20040;-63
2023/02/08 04:04:07;;;;;;;15.93;10.77;;;-4.30;67.60;;;;;;5085083;28;20440;-61
2023/02/08 04:06:33;;;;;;;15.20;10.05;;;-4.30;67.50;;;;;;5085147;28;20024;-63
2023/02/08 04:08:59;;;;;;;13.93;10.95;;;-4.20;67.50;;;;;;5097571;28;20496;-61
2023/02/08 04:11:24;;;;;;;18.30;11.05;;;-4.30;67.20;;;;;;5093736;28;20065;-62
2023/02/08 04:13:50;;;;;;;17.20;11.73;;;-4.20;67.40;;;;;;5096650;28;20489;-61
2023/02/08 04:16:15;;;;;;;18.27;10.85;;;-4.20;67.40;;;;;;5088785;28;20037;-59
2023/02/08 04:18:41;;;;;;;15.80;11.02;;;-4.20;67.50;;;;;;5093140;28;20055;-61
2023/02/08 04:21:07;;;;;;;15.35;10.80;;;-4.20;67.40;;;;;;5095433;28;20032;-62
2023/02/08 04:23:33;;;;;;;15.32;11.00;;;-4.10;67.30;;;;;;5091017;28;20104;-62
2023/02/08 04:25:58;;;;;;;15.80;11.32;;;-4.20;67.20;;;;;;5092888;28;20043;-61
2023/02/08 04:28:24;;;;;;;15.45;10.75;;;-4.20;67.30;;;;;;5092099;28;20063;-62
2023/02/08 04:30:50;;;;;;;15.82;11.40;;;-4.20;67.20;;;;;;5096438;28;20146;-61
2023/02/08 04:33:15;;;;;;;13.52;9.80;;;-4.20;67.20;;;;;;5089782;28;20457;-60
2023/02/08 04:35:42;;;;;;;15.18;11.45;;;-4.20;67.30;;;;;;5095039;28;20487;-62
2023/02/08 04:38:08;;;;;;;15.05;10.82;;;-4.20;67.40;;;;;;5089860;28;20028;-61
2023/02/08 04:40:34;;;;;;;16.05;11.73;;;-4.30;67.40;;;;;;5090879;28;20032;-61
2023/02/08 04:43:01;;;;;;;15.55;11.52;;;-4.30;67.60;;;;;;5090074;28;20028;-61
2023/02/08 04:45:28;;;;;;;17.38;12.55;;;-4.30;67.60;;;;;;5095014;28;20043;-60
2023/02/08 04:47:54;;;;;;;15.85;12.32;;;-4.30;67.70;;;;;;5094314;28;20026;-61
2023/02/08 04:50:20;;;;;;;15.88;11.50;;;-4.30;67.70;;;;;;5092182;28;20020;-61
2023/02/08 04:52:45;;;;;;;15.80;10.68;;;-4.30;67.70;;;;;;5092665;28;20081;-61
2023/02/08 04:55:11;;;;;;;15.43;10.70;;;-4.30;67.70;;;;;;5089466;28;20024;-62
2023/02/08 04:57:37;;;;;;;15.45;10.95;;;-4.40;67.70;;;;;;5088988;28;20489;-52
2023/02/08 05:00:03;;;;;;;20.35;13.18;;;-4.30;67.90;;;;;;5088657;28;20033;-53
2023/02/08 05:02:29;;;;;;;16.83;10.90;;;-4.40;67.80;;;;;;5089839;28;20048;-60
2023/02/08 05:04:54;;;;;;;14.15;10.65;;;-4.40;67.80;;;;;;5096180;28;20038;-60
2023/02/08 05:07:20;;;;;;;15.32;10.95;;;-4.40;68.10;;;;;;5077620;28;20455;-64
2023/02/08 05:09:45;;;;;;;16.92;12.32;;;-4.40;67.90;;;;;;5086603;28;20028;-63
2023/02/08 05:12:11;;;;;;;18.65;11.75;;;-4.50;67.90;;;;;;5089470;28;20030;-54
2023/02/08 05:14:37;;;;;;;15.85;11.68;;;-4.50;68.20;;;;;;5086463;28;20118;-55
2023/02/08 05:17:02;;;;;;;14.57;10.95;;;-4.50;68.20;;;;;;5095233;28;20111;-61
2023/02/08 05:19:28;;;;;;;16.50;12.07;;;-4.60;68.50;;;;;;5100870;28;20040;-61
2023/02/08 05:21:54;;;;;;;18.02;12.73;;;-4.60;68.40;;;;;;5089801;28;20032;-63
2023/02/08 05:24:19;;;;;;;15.15;10.82;;;-4.60;68.60;;;;;;5087691;28;20028;-63
2023/02/08 05:26:45;;;;;;;14.93;10.65;;;-4.60;68.40;;;;;;5094860;28;20477;-55
2023/02/08 05:29:10;;;;;;;16.05;11.50;;;-4.60;68.40;;;;;;5100957;28;20032;-52
2023/02/08 05:31:36;;;;;;;15.25;11.32;;;-4.60;68.50;;;;;;5090029;28;20460;-62
2023/02/08 05:34:02;;;;;;;15.90;11.43;;;-4.70;68.50;;;;;;5094461;28;20036;-62
2023/02/08 05:36:29;;;;;;;13.85;10.65;;;-4.70;68.60;;;;;;5096592;28;20040;-62
2023/02/08 05:38:54;;;;;;;15.18;10.35;;;-4.60;68.70;;;;;;5092590;28;20097;-61
2023/02/08 05:41:20;;;;;;;15.05;11.57;;;-4.60;68.80;;;;;;5087581;28;20040;-61
2023/02/08 05:43:46;;;;;;;13.65;11.35;;;-4.60;68.70;;;;;;5093735;28;20067;-61
2023/02/08 05:46:12;;;;;;;16.77;11.40;;;-4.60;68.70;;;;;;5090490;28;20052;-62
2023/02/08 05:48:37;;;;;;;14.23;10.50;;;-4.50;68.70;;;;;;5092444;28;20085;-61
2023/02/08 05:51:03;;;;;;;13.35;9.98;;;-4.50;68.80;;;;;;5101444;28;20024;-62
2023/02/08 05:53:29;;;;;;;15.32;11.10;;;-4.40;68.70;;;;;;5092754;28;20042;-62
2023/02/08 05:55:57;;;;;;;7.07;5.78;;;-4.40;68.60;;;;;;5090292;28;20115;-62
2023/02/08 05:58:23;;;;;;;12.13;9.93;;;-4.30;68.40;;;;;;5091479;28;20432;-62
2023/02/08 06:00:48;;;;;;;14.02;10.48;;;-4.30;68.60;;;;;;5101041;28;20106;-61
2023/02/08 06:03:14;;;;;;;15.02;10.27;;;-4.20;68.60;;;;;;5090625;28;20028;-62
2023/02/08 06:05:41;;;;;;;14.38;10.20;;;-4.20;68.50;;;;;;5093754;28;20040;-62
2023/02/08 06:08:07;;;;;;;16.23;11.32;;;-4.10;68.40;;;;;;5089301;28;20120;-62
2023/02/08 06:10:33;;;;;;;17.65;10.90;;;-4.10;68.40;;;;;;5086044;28;20714;-56
2023/02/08 06:13:00;;;;;;;16.20;10.80;;;-4.00;68.20;;;;;;5087036;28;20040;-56
2023/02/08 06:15:26;;;;;;;13.30;10.18;;;-4.00;68.00;;;;;;5087449;28;20035;-59
2023/02/08 06:17:52;;;;;;;16.80;11.35;;;-3.90;67.90;;;;;;5084960;28;20035;-56
2023/02/08 06:20:18;;;;;;;17.73;11.50;;;-3.90;68.20;;;;;;5091396;28;20078;-55
2023/02/08 06:22:44;;;;;;;14.85;10.90;;;-3.80;68.20;;;;;;5087883;28;20024;-53
2023/02/08 06:25:09;;;;;;;14.50;10.43;;;-3.70;68.00;;;;;;5096093;28;20039;-52
2023/02/08 06:27:35;;;;;;;14.65;11.32;;;-3.60;67.80;;;;;;5084429;28;20103;-55
2023/02/08 06:30:01;;;;;;;16.45;11.40;;;-3.50;67.80;;;;;;5089789;28;20051;-49
2023/02/08 06:32:27;;;;;;;16.50;11.63;;;-3.40;67.90;;;;;;5100585;28;20611;-64
2023/02/08 06:34:52;;;;;;;14.63;10.48;;;-3.40;67.50;;;;;;5086872;28;20032;-62
2023/02/08 06:37:18;;;;;;;14.05;10.80;;;-3.30;67.40;;;;;;5086801;28;20459;-53
2023/02/08 06:39:44;;;;;;;16.85;10.35;;;-3.30;67.10;;;;;;5076145;28;20086;-58
2023/02/08 06:42:10;;;;;;;12.25;9.35;;;-3.20;67.50;;;;;;5078558;28;20035;-55
2023/02/08 06:44:35;;;;;;;14.55;9.95;;;-3.20;66.70;;;;;;5079336;28;20024;-51
2023/02/08 06:47:01;;;;;;;12.60;9.52;;;-3.20;66.60;;;;;;5079501;28;20378;-56
2023/02/08 06:49:27;;;;;;;15.70;10.40;;;-3.20;66.50;;;;;;5078264;28;20149;-57
2023/02/08 06:51:52;;;;;;;15.30;10.15;;;-3.10;66.70;;;;;;5080249;28;20032;-50
2023/02/08 06:54:18;;;;;;;13.35;9.40;;;-3.10;66.50;;;;;;5080642;28;20028;-51
2023/02/08 06:56:43;;;;;;;13.82;10.02;;;-3.00;66.40;;;;;;5084345;28;20055;-60
2023/02/08 06:59:09;;;;;;;15.82;10.38;;;-3.00;66.30;;;;;;5080558;28;20036;-61
2023/02/08 07:01:35;;;;;;;16.13;10.75;;;-3.00;66.00;;;;;;5074412;28;20024;-60
2023/02/08 07:04:01;;;;;;;16.73;10.40;;;-3.00;65.90;;;;;;5083795;28;20121;-60
2023/02/08 07:06:27;;;;;;;15.20;10.80;;;-3.00;65.90;;;;;;5076223;28;20755;-60
2023/02/08 07:08:52;;;;;;;13.73;9.80;;;-3.00;65.90;;;;;;5082434;28;20111;-60
2023/02/08 07:11:19;;;;;;;16.77;11.13;;;-2.90;65.90;;;;;;5075212;28;20111;-59
2023/02/08 07:13:51;;;;;;;15.07;9.90;;;-2.90;65.70;;;;;;5081010;28;20040;-61
2023/02/08 07:16:18;;;;;;;13.63;10.25;;;-2.90;65.70;;;;;;5074712;28;20633;-60
2023/02/08 07:18:44;;;;;;;15.90;10.43;;;-2.80;65.50;;;;;;5079269;28;20767;-59
2023/02/08 07:21:10;;;;;;;16.10;10.60;;;-2.90;65.40;;;;;;5077998;28;20036;-61
2023/02/08 07:23:37;;;;;;;14.60;10.00;;;-2.90;65.40;;;;;;5077986;28;20446;-62
2023/02/08 07:26:06;;;;;;;14.43;10.00;;;-2.90;65.50;;;;;;5077296;28;20404;-61
2023/02/08 07:28:32;;;;;;;13.23;9.32;;;-2.90;65.50;;;;;;5079767;28;20036;-60
2023/02/08 07:30:57;;;;;;;12.30;9.27;;;-2.90;65.70;;;;;;5070968;28;20116;-60
2023/02/08 07:33:23;;;;;;;15.23;9.98;;;-2.90;65.70;;;;;;5073961;28;20032;-60
2023/02/08 07:35:49;;;;;;;12.70;9.43;;;-2.90;65.70;;;;;;5073329;28;20161;-60
2023/02/08 07:38:15;;;;;;;14.25;9.40;;;-2.90;65.60;;;;;;5070935;28;20123;-60
2023/02/08 07:40:40;;;;;;;13.48;9.63;;;-2.90;65.70;;;;;;5075417;28;20032;-61
2023/02/08 07:43:06;;;;;;;18.25;10.35;;;-3.00;65.70;;;;;;5072083;28;20484;-59
2023/02/08 07:45:32;;;;;;;14.82;10.20;;;-3.00;65.80;;;;;;5076654;28;20036;-59
2023/02/08 07:47:58;;;;;;;13.73;10.07;;;-3.00;65.90;;;;;;5073880;28;20051;-60
2023/02/08 07:50:24;;;;;;;14.30;10.18;;;-3.00;65.90;;;;;;5076132;28;20040;-60
2023/02/08 07:52:49;;;;;;;16.40;11.10;;;-3.00;66.00;;;;;;5076385;28;20119;-61
2023/02/08 07:55:19;;;;;;;14.43;10.10;;;-3.00;66.10;;;;;;5070553;28;20036;-60
2023/02/08 07:57:46;;;;;;;14.15;10.18;;;-3.00;66.10;;;;;;5071376;28;20066;-60
2023/02/08 08:00:13;;;;;;;15.55;10.55;;;-3.00;65.90;;;;;;5071689;28;20816;-60
2023/02/08 08:02:39;;;;;;;13.93;10.35;;;-3.00;66.20;;;;;;5074361;28;21039;-61
2023/02/08 08:05:06;;;;;;;15.00;11.32;;;-3.00;66.10;;;;;;5074187;28;20055;-60
2023/02/08 08:07:32;;;;;;;14.98;10.73;;;-3.00;66.10;;;;;;5076428;28;20040;-60
2023/02/08 08:09:58;;;;;;;15.63;10.40;;;-3.00;66.00;;;;;;5077955;28;20394;-60
2023/02/08 08:12:24;;;;;;;14.63;10.77;;;-3.00;66.10;;;;;;5075821;28;20454;-60
2023/02/08 08:14:52;;;;;;;17.52;10.43;;;-3.00;66.00;;;;;;5081798;28;20035;-61
2023/02/08 08:17:18;;;;;;;16.70;11.05;;;-3.00;66.40;;;;;;5073349;28;20034;-61
2023/02/08 08:19:43;;;;;;;16.58;11.25;;;-3.00;66.20;;;;;;5075649;28;20028;-60
2023/02/08 08:22:09;;;;;;;13.20;9.98;;;-2.90;66.50;;;;;;5070372;28;20120;-60
2023/02/08 08:24:35;;;;;;;15.45;10.73;;;-2.90;66.40;;;;;;5064178;28;20036;-60
2023/02/08 08:27:02;;;;;;;15.68;10.98;;;-2.90;66.40;;;;;;5050877;28;20568;-59
2023/02/08 08:29:30;;;;;;;14.38;11.07;;;-2.90;66.40;;;;;;5073260;28;20028;-60
2023/02/08 08:31:55;;;;;;;12.50;8.98;;;-2.80;66.20;;;;;;5058641;28;20050;-59
2023/02/08 08:34:28;;;;;;;14.52;11.02;;;-2.80;66.10;;;;;;5066023;28;20028;-59
2023/02/08 08:37:01;;;;;;;14.48;10.13;;;-2.80;66.20;;;;;;5066491;28;20020;-59
2023/02/08 08:39:27;;;;;;;14.32;9.48;;;-2.80;66.10;;;;;;5071847;28;20028;-59
2023/02/08 08:41:57;;;;;;;12.75;8.98;;;-2.70;66.20;;;;;;5076349;28;20036;-57
2023/02/08 08:44:23;;;;;;;14.23;9.85;;;-2.70;66.10;;;;;;5071817;28;20036;-59
2023/02/08 08:46:49;;;;;;;15.35;9.60;;;-2.70;66.10;;;;;;5071343;28;20040;-59
2023/02/08 08:49:14;;;;;;;13.13;8.95;;;-2.70;66.10;;;;;;5069322;28;20135;-60
2023/02/08 08:51:40;;;;;;;12.75;9.52;;;-2.60;66.20;;;;;;5065468;28;20040;-60
2023/02/08 08:54:06;;;;;;;15.07;10.18;;;-2.60;66.00;;;;;;5072698;28;20115;-59
2023/02/08 08:56:32;;;;;;;13.43;9.95;;;-2.60;66.00;;;;;;5057684;28;20081;-58
2023/02/08 08:58:58;;;;;;;14.55;9.75;;;-2.50;66.10;;;;;;5065738;28;20085;-56
2023/02/08 09:01:24;;;;;;;13.10;9.07;;;-2.50;66.20;;;;;;5065235;28;20617;-59
2023/02/08 09:03:50;;;;;;;11.57;9.18;;;-2.40;66.90;;;;;;5072315;28;20039;-59
2023/02/08 09:06:16;;;;;;;12.85;9.05;;;-2.40;66.20;;;;;;5070782;28;20047;-60
2023/02/08 09:08:42;;;;;;;13.02;9.63;;;-2.40;66.10;;;;;;5072015;28;20039;-59
2023/02/08 09:11:10;;;;;;;17.13;9.85;;;-2.30;66.00;;;;;;5073426;28;21559;-59
2023/02/08 09:13:37;;;;;;;14.30;9.63;;;-2.30;66.10;;;;;;5074253;28;20137;-59
2023/02/08 09:16:07;;;;;;;13.18;9.02;;;-2.20;66.10;;;;;;5072433;28;20139;-59
2023/02/08 09:18:33;;;;;;;11.95;8.60;;;-2.20;66.00;;;;;;5074573;28;20037;-59
2023/02/08 09:21:05;;;;;;;11.93;8.93;;;-2.20;65.90;;;;;;5067061;28;20040;-59
2023/02/08 09:23:31;;;;;;;;;;;-2.10;66.10;;;;;;5069921;28;20071;-59
2023/02/08 09:25:56;;;;;;;12.63;8.30;;;-2.10;65.80;;;;;;5072429;28;20078;-59
2023/02/08 09:28:22;;;;;;;13.77;8.80;;;-2.10;66.10;;;;;;5073442;28;20027;-59
2023/02/08 09:30:47;;;;;;;12.48;9.05;;;-2.00;66.00;;;;;;5073974;28;20028;-59
2023/02/08 09:33:13;;;;;;;12.27;8.00;;;-1.90;66.00;;;;;;5071719;28;20438;-59
2023/02/08 09:35:38;;;;;;;12.57;8.65;;;-1.80;65.70;;;;;;5041565;28;20039;-60
2023/02/08 09:38:04;;;;;;;12.40;8.50;;;-1.80;65.50;;;;;;5062823;28;20032;-60
2023/02/08 09:40:42;;;;;;;14.25;9.05;;;-1.80;65.60;;;;;;5073136;28;20039;-59
2023/02/08 09:43:19;;;;;;;13.48;9.98;;;-1.70;65.40;;;;;;5081613;28;20040;-59
2023/02/08 09:46:16;;;;;;;13.13;8.68;;;-1.60;65.30;;;;;;5073393;28;20036;-60
2023/02/08 09:48:43;;;;;;;11.88;7.75;;;-1.60;65.10;;;;;;5068071;28;20454;-60
2023/02/08 09:51:31;;;;;;;11.15;8.05;;;-1.50;65.10;;;;;;5047949;28;20080;-58
2023/02/08 09:54:26;;;;;;;12.43;7.78;;;-1.50;65.20;;;;;;5069897;28;20115;-59
2023/02/08 09:56:53;;;;;;;13.15;8.00;;;-1.40;65.10;;;;;;5071391;28;20473;-58
2023/02/08 09:59:28;;;;;;;12.15;7.97;;;-1.30;65.00;;;;;;5072391;28;20516;-58
2023/02/08 10:02:23;;;;;;;12.40;7.97;;;-1.30;65.20;;;;;;5069886;28;20123;-60
2023/02/08 10:05:07;;;;;;;9.88;7.30;;;-1.20;65.00;;;;;;5074545;28;20047;-59
2023/02/08 10:07:35;;;;;;;10.23;7.65;;;-1.10;65.00;;;;;;5074379;28;20043;-58
2023/02/08 10:10:04;;;;;;;10.65;7.70;;;-1.10;64.80;;;;;;5067566;28;20122;-59
2023/02/08 10:12:39;;;;;;;12.00;8.27;;;-1.00;64.80;;;;;;5071137;28;20051;-60
2023/02/08 10:15:35;;;;;;;11.02;8.23;;;-0.90;64.70;;;;;;5070779;28;20032;-58
2023/02/08 10:18:26;;;;;;;10.27;7.07;;;-0.80;64.70;;;;;;5074425;28;20109;-60
2023/02/08 10:21:22;;;;;;;8.77;7.18;;;-0.70;64.40;;;;;;5068667;28;20028;-62
2023/02/08 10:23:51;;;;;;;9.18;7.18;;;-0.60;64.30;;;;;;5070790;28;20036;-59
2023/02/08 10:26:31;;;;;;;9.70;6.88;;;-0.50;64.10;;;;;;5066222;28;20032;-59
2023/02/08 10:29:32;;;;;;;12.23;7.85;;;-0.50;63.80;;;;;;5071531;28;20036;-60
2023/02/08 10:32:12;;;;;;;13.75;8.70;;;-0.50;64.10;;;;;;5064731;28;20031;-60
2023/02/08 10:34:45;;;;;;;11.38;7.60;;;-0.40;64.00;;;;;;5066642;28;20051;-58
2023/02/08 10:37:17;;;;;;;11.13;7.32;;;-0.30;63.70;;;;;;5063483;28;20766;-58
2023/02/08 10:39:44;;;;;;;10.55;7.40;;;-0.30;63.60;;;;;;5067754;28;20020;-58
2023/02/08 10:42:21;;;;;;;11.30;8.40;;;-0.20;63.60;;;;;;5066735;28;20494;-60
2023/02/08 10:45:09;;;;;;;10.35;7.18;;;-0.10;63.70;;;;;;5066168;28;20083;-60
2023/02/08 10:47:43;;;;;;;10.45;8.23;;;-0.10;63.30;;;;;;5063853;28;20113;-59
2023/02/08 10:50:42;;;;;;;9.85;7.35;;;-0.10;63.10;;;;;;5062570;28;20485;-60
2023/02/08 10:53:15;;;;;;;11.38;7.47;;;0.00;63.20;;;;;;5062999;28;20963;-60
2023/02/08 10:55:43;;;;;;;9.25;6.75;;;0.00;63.00;;;;;;5061227;28;20477;-59
2023/02/08 10:58:14;;;;;;;9.75;7.13;;;0.10;62.90;;;;;;5061655;28;20048;-59
2023/02/08 11:00:41;;;;;;;8.50;6.60;;;0.10;62.50;;;;;;5070077;28;20082;-59
2023/02/08 11:03:26;;;;;;;10.57;7.15;;;0.00;62.50;;;;;;5068121;28;20127;-59
2023/02/08 11:05:53;;;;;;;9.82;6.97;;;0.00;62.70;;;;;;5070689;28;20047;-59
2023/02/08 11:08:23;;;;;;;10.07;7.00;;;-0.10;62.60;;;;;;5071227;28;20028;-59
2023/02/08 11:11:03;;;;;;;9.33;6.87;;;-0.10;62.90;;;;;;5063650;28;20063;-59
2023/02/08 11:13:44;;;;;;;10.05;6.93;;;-0.10;63.00;;;;;;5060599;28;21120;-60
2023/02/08 11:16:19;;;;;;;9.57;7.18;;;-0.10;63.10;;;;;;5067627;28;20197;-60
2023/02/08 11:19:00;;;;;;;10.65;7.20;;;-0.10;63.00;;;;;;5063149;28;20127;-60
2023/02/08 11:21:33;;;;;;;10.88;7.05;;;-0.10;63.10;;;;;;5068813;28;20093;-60
2023/02/08 11:24:03;;;;;;;10.68;7.05;;;-0.10;63.10;;;;;;5066290;28;20040;-61
2023/02/08 11:26:38;;;;;;;8.52;6.95;;;-0.10;63.20;;;;;;5062891;28;20044;-59
2023/02/08 11:29:19;;;;;;;9.60;6.82;;;-0.10;63.40;;;;;;5061595;28;20040;-59
2023/02/08 11:31:55;;;;;;;11.10;7.10;;;-0.10;63.40;;;;;;5071178;28;20032;-59
2023/02/08 11:34:27;;;;;;;11.80;8.00;;;-0.10;63.20;;;;;;5065366;28;20034;-59
2023/02/08 11:36:54;;;;;;;9.88;6.55;;;0.00;63.20;;;;;;5071129;28;20039;-59
2023/02/08 11:39:41;;;;;;;10.10;6.82;;;0.00;63.20;;;;;;5068459;28;20052;-59
2023/02/08 11:42:26;;;;;;;10.65;6.95;;;0.00;63.00;;;;;;5067070;28;20043;-59
2023/02/08 11:44:53;;;;;;;9.13;7.00;;;0.00;63.00;;;;;;5070521;28;20066;-59
2023/02/08 11:47:28;;;;;;;8.63;6.53;;;0.00;63.10;;;;;;5067227;28;20036;-59
2023/02/08 11:50:00;;;;;;;9.18;6.22;;;0.00;63.00;;;;;;5079506;28;20085;-59
2023/02/08 11:52:30;;;;;;;;;;;0.00;62.90;;;;;;5070684;28;20119;-59
2023/02/08 11:55:11;;;;;;;9.50;6.53;;;0.00;62.60;;;;;;5068268;28;20624;-62
2023/02/08 11:57:56;;;;;;;8.48;6.30;;;0.00;63.20;;;;;;5062625;28;20044;-59
2023/02/08 12:00:27;;;;;;;8.18;6.10;;;0.00;63.30;;;;;;5076852;28;20162;-59
2023/02/08 12:02:57;;;;;;;;;;;0.00;63.10;;;;;;5058410;28;20036;-59
2023/02/08 12:05:44;;;;;;;8.38;6.13;;;0.00;63.00;;;;;;5059852;28;20614;-60
2023/02/08 12:08:25;;;;;;;7.18;5.63;;;0.10;63.50;;;;;;5060575;28;20652;-62
2023/02/08 12:11:01;;;;;;;9.13;6.13;;;0.10;63.40;;;;;;5068332;28;20039;-59
2023/02/08 12:14:06;;;;;;;9.18;6.22;;;0.20;63.30;;;;;;5068703;28;20036;-61
2023/02/08 12:16:35;;;;;;;9.10;6.97;;;0.20;63.20;;;;;;5070894;28;20077;-60
2023/02/08 12:19:30;;;;;;;8.95;6.22;;;0.20;63.10;;;;;;5066396;28;20039;-61
2023/02/08 12:22:05;;;;;;;11.02;7.00;;;0.20;63.00;;;;;;5066463;28;20024;-61
2023/02/08 12:24:42;;;;;;;8.95;6.70;;;0.30;63.20;;;;;;5067485;28;20024;-60
2023/02/08 12:27:29;;;;;;;10.85;7.45;;;0.30;63.20;;;;;;5064650;28;20091;-60
2023/02/08 12:30:29;;;;;;;10.65;7.28;;;0.40;62.90;;;;;;5070169;28;20054;-62
2023/02/08 12:33:09;;;;;;;8.10;6.63;;;0.40;62.70;;;;;;5047298;28;20541;-58
2023/02/08 12:36:01;;;;;;;9.07;6.10;;;0.30;62.70;;;;;;5071048;28;20038;-61
2023/02/08 12:42:10;;;;;;;9.15;6.00;;;0.30;62.70;;;;;;5079588;28;20035;-60
2023/02/08 12:44:55;;;;;;;8.38;6.05;;;0.30;62.80;;;;;;4993971;28;20040;-60
2023/02/08 12:47:56;;;;;;;10.27;6.15;;;0.30;62.90;;;;;;5065689;28;20099;-60
2023/02/08 12:50:58;;;;;;;9.77;6.40;;;0.30;62.70;;;;;;5076628;28;20032;-60
2023/02/08 12:53:33;;;;;;;8.27;5.72;;;0.30;62.80;;;;;;5074850;28;20035;-59
2023/02/08 12:56:15;;;;;;;8.25;6.28;;;0.30;63.10;;;;;;5067910;28;20086;-60
2023/02/08 12:58:48;;;;;;;9.15;6.28;;;0.30;62.90;;;;;;5068541;28;20117;-60
2023/02/08 13:01:19;;;;;;;9.13;6.18;;;0.30;63.00;;;;;;5069474;28;20385;-60
2023/02/08 13:03:59;;;;;;;8.00;5.32;;;0.30;63.00;;;;;;5077415;28;20118;-59
2023/02/08 13:06:32;;;;;;;7.75;6.38;;;0.30;63.20;;;;;;5073755;28;20188;-60